Time;durP1;ratioP1;P1;durP2;ratioP2;P2;SDS_P1;SDS_P2;PMS_P1;PMS_P2;Temp;Humidity;BMP_temperature;BMP_pressure;BME280_temperature;BME280_humidity;BME280_pressure;Samples;Min_cycle;Max_cycle;Signal;HPM_P1;HPM_P2
2022/01/22 00:01:12;;;;;;;12.32;2.47;;;6.30;99.90;;;;;;5054310;28;20043;-80
2022/01/22 00:03:38;;;;;;;16.13;2.30;;;6.40;99.90;;;;;;5038311;28;20182;-80
2022/01/22 00:06:05;;;;;;;14.73;2.45;;;6.30;99.90;;;;;;5037124;28;20053;-80
2022/01/22 00:08:31;;;;;;;14.05;2.72;;;6.30;99.90;;;;;;5024353;28;22485;-80
2022/01/22 00:10:57;;;;;;;19.10;2.60;;;6.40;99.90;;;;;;5086950;28;20141;-80
2022/01/22 00:16:07;;;;;;;10.13;2.40;;;6.30;99.90;;;;;;5089305;28;20087;-80
2022/01/22 00:18:33;;;;;;;10.80;2.50;;;6.30;99.90;;;;;;5039638;28;20087;-80
2022/01/22 00:20:58;;;;;;;14.82;2.28;;;6.40;99.90;;;;;;5038424;28;20049;-80
2022/01/22 00:23:26;;;;;;;8.95;2.38;;;6.40;99.90;;;;;;5037211;28;20049;-79
2022/01/22 00:25:54;;;;;;;12.65;2.22;;;6.40;99.90;;;;;;5040579;28;20060;-80
2022/01/22 00:28:20;;;;;;;11.73;2.40;;;6.40;99.90;;;;;;5036261;28;20044;-80
2022/01/22 00:30:46;;;;;;;11.07;2.17;;;6.30;99.90;;;;;;5005351;28;20075;-80
2022/01/22 00:33:12;;;;;;;11.20;2.30;;;6.30;99.90;;;;;;5069260;28;20053;-81
2022/01/22 00:35:38;;;;;;;11.00;2.72;;;6.30;99.90;;;;;;5025463;28;20045;-80
2022/01/22 00:38:04;;;;;;;11.55;2.17;;;6.30;99.90;;;;;;5054091;28;20048;-80
2022/01/22 00:40:30;;;;;;;13.85;2.17;;;6.30;99.90;;;;;;5037416;28;20796;-80
2022/01/22 00:42:55;;;;;;;14.82;3.10;;;7.30;99.90;;;;;;5038483;28;20097;-81
2022/01/22 00:45:22;;;;;;;12.80;2.05;;;6.30;99.90;;;;;;5022900;28;20036;-81
2022/01/22 00:47:48;;;;;;;11.45;2.22;;;6.30;99.90;;;;;;5023336;28;20560;-80
2022/01/22 00:50:16;;;;;;;13.35;2.42;;;6.30;99.90;;;;;;5013578;28;20052;-80
2022/01/22 00:52:44;;;;;;;17.73;2.58;;;6.30;99.90;;;;;;5038754;28;20059;-80
2022/01/22 00:55:11;;;;;;;12.10;2.30;;;6.30;99.90;;;;;;5054213;28;20064;-81
2022/01/22 00:57:36;;;;;;;14.90;2.40;;;6.30;99.90;;;;;;5038840;28;20056;-81
2022/01/22 01:00:05;;;;;;;13.55;2.50;;;6.30;99.90;;;;;;5071249;28;20467;-81
2022/01/22 01:02:31;;;;;;;8.82;2.10;;;6.30;99.90;;;;;;5041497;28;20048;-80
2022/01/22 01:04:56;;;;;;;14.98;2.72;;;6.30;99.90;;;;;;5025091;28;20126;-81
2022/01/22 01:07:22;;;;;;;13.48;2.58;;;6.30;99.90;;;;;;5037551;28;20141;-80
2022/01/22 01:09:48;;;;;;;10.52;2.75;;;6.30;99.90;;;;;;5024213;28;20164;-80
2022/01/22 01:12:13;;;;;;;14.70;1.98;;;6.70;99.90;;;;;;5022844;28;20539;-80
2022/01/22 01:14:50;;;;;;;9.68;2.00;;;6.30;99.90;;;;;;5055698;28;20076;-80
2022/01/22 01:32:12;;;;;;;14.23;2.10;;;6.30;99.90;;;;;;5072176;28;20049;-80
2022/01/22 01:34:08;;;;;;;12.50;1.90;;;6.30;99.90;;;;;;5070151;28;20160;-80
2022/01/22 01:36:34;;;;;;;8.13;1.65;;;6.30;99.90;;;;;;5055185;28;20055;-80
2022/01/22 01:39:02;;;;;;;8.95;1.50;;;6.30;99.90;;;;;;5037941;28;20044;-80
2022/01/22 01:41:40;;;;;;;6.78;1.80;;;6.30;99.90;;;;;;5036849;28;20040;-80
2022/01/22 01:44:06;;;;;;;10.68;1.85;;;6.30;99.90;;;;;;5069008;28;20036;-80
2022/01/22 01:46:33;;;;;;;8.90;2.10;;;6.30;99.90;;;;;;5021769;28;21032;-80
2022/01/22 01:48:59;;;;;;;8.52;1.73;;;6.30;99.90;;;;;;5036830;28;20084;-80
2022/01/22 01:51:28;;;;;;;5.30;1.17;;;6.30;99.90;;;;;;5052814;28;20188;-80
2022/01/22 01:59:14;;;;;;;5.28;1.20;;;6.30;99.90;;;;;;5043975;28;20103;-80
2022/01/22 02:01:41;;;;;;;6.35;1.10;;;6.20;99.90;;;;;;5053327;28;20102;-80
2022/01/22 02:04:09;;;;;;;5.82;1.00;;;6.20;99.90;;;;;;5020605;28;20045;-81
2022/01/22 02:06:35;;;;;;;7.53;1.63;;;7.10;99.90;;;;;;5068187;28;20498;-80
2022/01/22 02:09:02;;;;;;;5.63;1.50;;;6.20;99.90;;;;;;5069213;28;20076;-81
2022/01/22 02:11:29;;;;;;;5.03;1.70;;;6.20;99.90;;;;;;5069606;28;20084;-80
2022/01/22 02:24:52;;;;;;;6.90;1.20;;;6.50;99.90;;;;;;5053259;28;20048;-79
2022/01/22 02:27:19;;;;;;;5.03;1.08;;;6.20;99.90;;;;;;5026124;28;20048;-80
2022/01/22 02:29:44;;;;;;;5.25;0.93;;;6.20;99.90;;;;;;5037969;28;20056;-80
2022/01/22 02:35:27;;;;;;;4.07;0.90;;;6.20;99.90;;;;;;5085137;28;20056;-79
2022/01/22 02:37:59;;;;;;;5.10;0.90;;;6.10;99.90;;;;;;5024287;28;20561;-81
2022/01/22 02:40:33;;;;;;;5.20;0.85;;;6.10;99.90;;;;;;5052088;28;20790;-80
2022/01/22 02:43:00;;;;;;;4.97;0.82;;;6.10;99.90;;;;;;5051813;28;20044;-80
2022/01/22 02:45:26;;;;;;;3.33;0.90;;;6.10;99.90;;;;;;5051747;28;20045;-80
2022/01/22 02:47:53;;;;;;;5.35;1.08;;;6.10;99.90;;;;;;5050906;28;20095;-80
2022/01/22 02:50:20;;;;;;;7.00;1.15;;;6.10;99.90;;;;;;5037673;28;20571;-80
2022/01/22 02:52:46;;;;;;;5.10;1.40;;;6.00;99.90;;;;;;5021102;28;20106;-80
2022/01/22 02:55:14;;;;;;;5.60;0.98;;;7.10;99.90;;;;;;5053023;28;20105;-80
2022/01/22 02:57:42;;;;;;;7.05;1.20;;;6.00;99.90;;;;;;5034930;28;20052;-79
2022/01/22 03:00:12;;;;;;;6.45;1.33;;;6.00;99.90;;;;;;5053255;28;20696;-80
2022/01/22 03:02:39;;;;;;;6.32;1.20;;;6.00;99.90;;;;;;5054260;28;20494;-80
2022/01/22 03:05:06;;;;;;;8.90;1.65;;;6.00;99.90;;;;;;5040410;28;20038;-80
2022/01/22 03:07:32;;;;;;;6.20;1.33;;;6.00;99.90;;;;;;5036333;28;20045;-80
2022/01/22 03:10:02;;;;;;;8.27;1.25;;;6.00;99.90;;;;;;5034601;28;20072;-80
2022/01/22 03:27:51;;;;;;;8.30;1.30;;;5.90;99.90;;;;;;5037481;28;20128;-80
2022/01/22 03:30:18;;;;;;;5.85;1.30;;;5.90;99.90;;;;;;5036994;28;20170;-80
2022/01/22 03:32:48;;;;;;;6.88;1.35;;;5.90;99.90;;;;;;5067462;28;20037;-80
2022/01/22 03:37:52;;;;;;;7.95;1.77;;;5.90;99.90;;;;;;5036583;28;20052;-79
2022/01/22 03:40:23;;;;;;;9.13;1.45;;;6.00;99.90;;;;;;5054306;28;20509;-80
2022/01/22 03:42:51;;;;;;;10.50;1.25;;;6.00;99.90;;;;;;5033326;28;20429;-79
2022/01/22 03:45:18;;;;;;;6.45;1.58;;;6.00;99.90;;;;;;5034401;28;20077;-79
2022/01/22 03:47:44;;;;;;;5.85;1.70;;;5.90;99.90;;;;;;5020382;28;20080;-80
2022/01/22 03:50:11;;;;;;;7.78;1.63;;;5.90;99.90;;;;;;5035729;28;20096;-81
2022/01/22 03:52:37;;;;;;;8.45;1.50;;;6.00;99.90;;;;;;5052207;28;20441;-80
2022/01/22 03:55:06;;;;;;;9.65;1.65;;;6.00;99.90;;;;;;5019780;28;20103;-79
2022/01/22 03:57:32;;;;;;;9.80;1.75;;;6.00;99.90;;;;;;5065559;28;20049;-80
2022/01/22 03:59:58;;;;;;;11.85;2.42;;;6.00;99.90;;;;;;5021729;28;20045;-79
2022/01/22 04:05:03;;;;;;;9.23;1.90;;;6.00;99.90;;;;;;5070296;28;20045;-79
2022/01/22 04:10:17;;;;;;;8.45;1.65;;;6.00;99.90;;;;;;5084298;28;20057;-80
2022/01/22 04:15:15;;;;;;;9.02;2.05;;;6.00;99.90;;;;;;5049690;28;20052;-80
2022/01/22 04:26:10;;;;;;;12.13;1.80;;;5.80;99.90;;;;;;5054463;28;20052;-80
2022/01/22 04:28:36;;;;;;;9.70;1.85;;;5.90;99.90;;;;;;5009503;28;20061;-80
2022/01/22 04:31:01;;;;;;;12.88;1.88;;;5.80;99.90;;;;;;5053106;28;20484;-80
2022/01/22 04:33:27;;;;;;;10.82;1.88;;;5.90;99.90;;;;;;5038027;28;20498;-79
2022/01/22 04:35:53;;;;;;;9.63;1.92;;;5.50;99.90;;;;;;5070354;28;20053;-79
2022/01/22 04:38:19;;;;;;;6.85;1.60;;;6.30;99.90;;;;;;5053437;28;20057;-80
2022/01/22 04:40:44;;;;;;;14.60;2.05;;;6.60;99.90;;;;;;5070238;28;20048;-80
2022/01/22 04:43:11;;;;;;;13.10;1.88;;;5.90;99.90;;;;;;5023366;28;20059;-81
2022/01/22 04:56:15;;;;;;;4.88;1.40;;;5.80;99.90;;;;;;5038505;28;20124;-80
2022/01/22 04:58:40;;;;;;;8.38;1.52;;;6.10;99.90;;;;;;5053465;28;20451;-79
2022/01/22 05:01:06;;;;;;;7.50;1.42;;;5.80;99.90;;;;;;5026879;28;20048;-80
2022/01/22 05:03:32;;;;;;;6.53;1.55;;;6.20;99.90;;;;;;5053778;28;20126;-80
2022/01/22 05:05:58;;;;;;;8.15;1.60;;;5.80;99.90;;;;;;5037821;28;20049;-80
2022/01/22 05:08:23;;;;;;;8.57;1.20;;;5.80;99.90;;;;;;5056204;28;20123;-80
2022/01/22 05:10:49;;;;;;;6.93;1.38;;;5.80;99.90;;;;;;5036941;28;20055;-79
2022/01/22 05:13:15;;;;;;;8.30;1.67;;;5.80;99.90;;;;;;5037844;28;20048;-80
2022/01/22 05:15:41;;;;;;;10.48;1.52;;;5.90;99.90;;;;;;5054534;28;20041;-79
2022/01/22 05:18:08;;;;;;;7.13;1.50;;;5.80;99.90;;;;;;5054283;28;20066;-79
2022/01/22 05:20:42;;;;;;;10.23;1.70;;;6.30;99.90;;;;;;5051607;28;20118;-80
2022/01/22 05:23:16;;;;;;;10.05;1.90;;;5.80;99.90;;;;;;5053269;28;20402;-79
2022/01/22 05:25:52;;;;;;;13.02;1.80;;;5.90;99.90;;;;;;5037699;28;20041;-79
2022/01/22 05:31:05;;;;;;;9.68;1.35;;;5.80;99.90;;;;;;5053488;28;20492;-80
2022/01/22 05:39:08;;;;;;;12.23;1.83;;;6.40;99.90;;;;;;5053181;28;20041;-79
2022/01/22 05:41:33;;;;;;;8.50;1.60;;;5.80;99.90;;;;;;5053320;28;20650;-79
2022/01/22 05:43:59;;;;;;;8.15;1.52;;;5.80;99.90;;;;;;5069884;28;20061;-79
2022/01/22 05:46:25;;;;;;;6.18;1.83;;;5.80;99.90;;;;;;5022052;28;20141;-79
2022/01/22 05:48:50;;;;;;;7.25;1.30;;;5.90;99.90;;;;;;5036322;28;20056;-79
2022/01/22 05:51:17;;;;;;;7.60;1.35;;;5.80;99.90;;;;;;5034473;28;20479;-80
2022/01/22 06:01:57;;;;;;;8.88;2.40;;;5.90;99.90;;;;;;5053172;28;20048;-79
2022/01/22 06:04:24;;;;;;;8.80;2.05;;;5.90;99.90;;;;;;5068624;28;20033;-79
2022/01/22 06:06:49;;;;;;;8.25;1.58;;;5.90;99.90;;;;;;5052161;28;20052;-79
2022/01/22 06:09:15;;;;;;;8.65;1.85;;;5.90;99.90;;;;;;5033043;28;20048;-81
2022/01/22 06:14:26;;;;;;;9.35;2.03;;;6.00;99.90;;;;;;5053827;28;20062;-79
2022/01/22 06:16:51;;;;;;;9.50;1.83;;;5.90;99.90;;;;;;5006335;28;20139;-79
2022/01/22 06:19:17;;;;;;;10.70;1.98;;;6.00;99.90;;;;;;5021420;28;20091;-81
2022/01/22 06:21:43;;;;;;;5.70;1.67;;;5.90;99.90;;;;;;5020834;28;20950;-79
2022/01/22 06:24:08;;;;;;;8.52;1.80;;;6.90;99.90;;;;;;5036625;28;20485;-80
2022/01/22 06:26:35;;;;;;;10.43;1.85;;;6.00;99.90;;;;;;5035898;28;20106;-80
2022/01/22 06:29:03;;;;;;;7.93;2.25;;;6.00;99.90;;;;;;5069031;28;20174;-79
2022/01/22 06:31:29;;;;;;;10.13;1.98;;;6.20;99.90;;;;;;5018725;28;20379;-79
2022/01/22 06:33:55;;;;;;;7.47;1.92;;;6.00;99.90;;;;;;5038279;28;20114;-79
2022/01/22 06:36:21;;;;;;;12.68;2.28;;;6.00;99.90;;;;;;5035072;28;20048;-80
2022/01/22 06:38:48;;;;;;;8.70;2.08;;;6.50;99.90;;;;;;5037574;28;20052;-79
2022/01/22 06:43:58;;;;;;;12.98;2.22;;;6.00;99.90;;;;;;5038493;28;20037;-79
2022/01/22 06:46:23;;;;;;;7.35;1.92;;;6.00;99.90;;;;;;5032871;28;20049;-79
2022/01/22 06:48:49;;;;;;;7.75;1.70;;;6.00;99.90;;;;;;5051078;28;20033;-79
2022/01/22 06:51:16;;;;;;;8.35;1.50;;;6.10;99.90;;;;;;5022465;28;20504;-79
2022/01/22 06:53:41;;;;;;;8.05;1.58;;;6.00;99.90;;;;;;5034740;28;20133;-79
2022/01/22 06:56:09;;;;;;;7.82;1.75;;;6.10;99.90;;;;;;5067652;28;20041;-80
2022/01/22 06:58:35;;;;;;;11.88;1.77;;;6.20;99.90;;;;;;5035552;28;20036;-77
2022/01/22 07:01:01;;;;;;;10.45;1.88;;;6.10;99.90;;;;;;5032336;28;20086;-78
2022/01/22 07:03:27;;;;;;;9.65;1.50;;;6.10;99.90;;;;;;5051537;28;20075;-78
2022/01/22 07:05:52;;;;;;;9.23;1.60;;;6.20;99.90;;;;;;5019827;28;20033;-78
2022/01/22 07:08:18;;;;;;;8.57;1.77;;;6.10;99.90;;;;;;5050642;28;20106;-79
2022/01/22 07:10:44;;;;;;;8.48;1.85;;;6.20;99.90;;;;;;5054269;28;20123;-78
2022/01/22 07:13:10;;;;;;;8.93;1.50;;;6.10;99.90;;;;;;5034409;28;20609;-78
2022/01/22 07:15:36;;;;;;;11.40;1.65;;;6.20;99.90;;;;;;5050996;28;20037;-79
2022/01/22 07:18:03;;;;;;;7.60;1.38;;;6.10;99.90;;;;;;5035790;28;20091;-78
2022/01/22 07:20:31;;;;;;;10.30;1.98;;;6.10;99.90;;;;;;5035422;28;20053;-79
2022/01/22 07:25:26;;;;;;;7.75;1.85;;;6.20;99.90;;;;;;5035597;28;20521;-80
2022/01/22 07:27:53;;;;;;;8.30;1.65;;;6.20;99.90;;;;;;5034969;28;20052;-78
2022/01/22 07:30:18;;;;;;;10.27;1.50;;;6.10;99.90;;;;;;5050021;28;20049;-79
2022/01/22 07:32:45;;;;;;;10.52;1.70;;;6.20;99.90;;;;;;5033476;28;20052;-83
2022/01/22 07:35:19;;;;;;;14.63;1.80;;;7.00;99.90;;;;;;5067802;28;20045;-81
2022/01/22 07:37:47;;;;;;;6.13;1.73;;;6.10;99.90;;;;;;5050236;28;20498;-81
2022/01/22 07:40:13;;;;;;;9.48;1.80;;;6.20;99.90;;;;;;5035752;28;20075;-80
2022/01/22 07:42:40;;;;;;;9.38;1.80;;;6.40;99.90;;;;;;5035573;28;20048;-81
2022/01/22 07:45:07;;;;;;;9.65;2.10;;;6.20;99.90;;;;;;5052462;28;20044;-80
2022/01/22 07:47:32;;;;;;;8.05;1.95;;;6.20;99.90;;;;;;5066944;28;20159;-81
2022/01/22 07:49:58;;;;;;;10.43;2.00;;;6.20;99.90;;;;;;5032775;28;20182;-81
2022/01/22 07:52:24;;;;;;;8.25;2.03;;;6.20;99.90;;;;;;5032898;28;20052;-81
2022/01/22 07:54:50;;;;;;;8.15;1.77;;;6.20;99.90;;;;;;5036958;28;20052;-80
2022/01/22 07:57:16;;;;;;;10.70;2.00;;;6.70;99.90;;;;;;5069882;28;20049;-81
2022/01/22 07:59:42;;;;;;;7.50;1.83;;;6.20;99.90;;;;;;5045918;28;20056;-80
2022/01/22 08:02:08;;;;;;;9.75;2.17;;;6.20;99.90;;;;;;5053923;28;20052;-80
2022/01/22 08:04:34;;;;;;;6.50;1.63;;;6.20;99.90;;;;;;5052350;28;20049;-80
2022/01/22 08:07:02;;;;;;;9.07;1.70;;;6.20;99.90;;;;;;5054057;28;20063;-80
2022/01/22 08:09:28;;;;;;;8.00;1.90;;;6.20;99.90;;;;;;5037453;28;20482;-81
2022/01/22 08:11:54;;;;;;;6.93;1.85;;;6.20;99.90;;;;;;5070565;28;20512;-80
2022/01/22 08:14:20;;;;;;;9.10;2.08;;;6.30;99.90;;;;;;5007758;28;20040;-80
2022/01/22 08:16:47;;;;;;;8.45;1.90;;;6.20;99.90;;;;;;5038075;28;20052;-80
2022/01/22 08:19:13;;;;;;;16.55;3.10;;;6.30;99.90;;;;;;5051817;28;20053;-80
2022/01/22 08:21:39;;;;;;;9.45;2.10;;;6.60;99.90;;;;;;5038763;28;20055;-80
2022/01/22 08:24:05;;;;;;;10.35;2.15;;;6.30;99.90;;;;;;5038383;28;20079;-80
2022/01/22 08:26:36;;;;;;;9.23;2.00;;;6.30;99.90;;;;;;5037925;28;20119;-80
2022/01/22 08:29:03;;;;;;;10.85;2.00;;;6.30;99.90;;;;;;5038105;28;20044;-80
2022/01/22 08:36:41;;;;;;;5.13;1.50;;;6.30;99.90;;;;;;5040321;28;20489;-80
2022/01/22 08:39:07;;;;;;;10.80;2.28;;;6.40;99.90;;;;;;5041605;28;20037;-80
2022/01/22 08:41:33;;;;;;;9.07;1.90;;;6.30;99.90;;;;;;5038233;28;20039;-80
2022/01/22 08:44:00;;;;;;;9.50;1.52;;;6.40;99.90;;;;;;5022713;28;20677;-80
2022/01/22 08:46:27;;;;;;;9.02;2.00;;;6.40;99.90;;;;;;5026424;28;20062;-84
2022/01/22 08:48:53;;;;;;;10.57;1.88;;;6.50;99.90;;;;;;5023541;28;20043;-84
2022/01/22 08:51:18;;;;;;;7.40;1.85;;;6.50;99.90;;;;;;5033979;28;20056;-82
2022/01/22 08:53:47;;;;;;;7.22;1.75;;;6.50;99.90;;;;;;5036431;28;20052;-83
2022/01/22 08:56:13;;;;;;;10.43;2.28;;;6.50;99.90;;;;;;5069740;28;20102;-81
2022/01/22 08:58:38;;;;;;;9.07;2.60;;;6.50;99.90;;;;;;5036652;28;20045;-81
2022/01/22 09:01:05;;;;;;;6.60;2.20;;;6.60;99.90;;;;;;5034601;28;20041;-81
2022/01/22 09:03:32;;;;;;;15.90;2.58;;;6.60;99.90;;;;;;5050340;28;20048;-83
2022/01/22 09:05:59;;;;;;;12.32;2.22;;;6.60;99.90;;;;;;5035418;28;20054;-82
2022/01/22 09:08:26;;;;;;;9.65;2.00;;;6.60;99.90;;;;;;5053361;28;20148;-82
2022/01/22 09:10:53;;;;;;;10.73;2.10;;;6.60;99.90;;;;;;5036759;28;20044;-83
2022/01/22 09:13:21;;;;;;;8.82;1.98;;;6.70;99.90;;;;;;5038928;28;20056;-84
2022/01/22 09:15:50;;;;;;;11.30;2.40;;;6.70;99.90;;;;;;5019725;28;20047;-84
2022/01/22 09:18:16;;;;;;;10.52;2.30;;;6.60;99.90;;;;;;5021540;28;20128;-83
2022/01/22 09:20:55;;;;;;;8.75;2.55;;;6.80;99.90;;;;;;5051633;28;20045;-82
2022/01/22 09:23:20;;;;;;;9.88;2.33;;;6.70;99.90;;;;;;5039990;28;20048;-84
2022/01/22 09:25:47;;;;;;;6.72;1.90;;;6.70;99.90;;;;;;5051474;28;20041;-82
2022/01/22 09:28:15;;;;;;;8.63;1.92;;;7.60;99.90;;;;;;5037455;28;20127;-82
2022/01/22 09:30:43;;;;;;;8.60;1.80;;;5.60;99.90;;;;;;5021858;28;20123;-83
2022/01/22 09:33:09;;;;;;;11.18;2.08;;;6.70;99.90;;;;;;5022922;28;20569;-86
2022/01/22 09:35:35;;;;;;;11.57;2.28;;;6.60;99.90;;;;;;5035080;28;20053;-85
2022/01/22 09:38:01;;;;;;;9.70;2.20;;;6.60;99.90;;;;;;5053163;28;20048;-85
2022/01/22 09:40:28;;;;;;;9.63;2.22;;;6.60;99.90;;;;;;5036236;28;20422;-83
2022/01/22 09:42:56;;;;;;;12.35;2.05;;;6.60;99.90;;;;;;5033857;28;20114;-84
2022/01/22 09:45:23;;;;;;;7.78;2.17;;;6.70;99.90;;;;;;5069538;28;20428;-84
2022/01/22 09:47:50;;;;;;;11.07;2.40;;;6.70;99.90;;;;;;5021983;28;20079;-83
2022/01/22 09:50:23;;;;;;;10.50;2.40;;;6.60;99.90;;;;;;5051314;28;20102;-81
2022/01/22 09:52:50;;;;;;;9.73;2.08;;;6.60;99.90;;;;;;5083481;28;20379;-82
2022/01/22 09:55:16;;;;;;;13.13;3.33;;;6.60;99.90;;;;;;5050109;28;20045;-80
2022/01/22 09:57:44;;;;;;;8.93;2.00;;;6.60;99.90;;;;;;5044350;28;20056;-80
2022/01/22 10:00:13;;;;;;;12.70;2.53;;;6.60;99.90;;;;;;5067157;28;20056;-79
2022/01/22 10:02:47;;;;;;;11.23;1.85;;;6.60;99.90;;;;;;5019797;28;20114;-81
2022/01/22 10:05:37;;;;;;;10.95;1.80;;;6.60;99.90;;;;;;5065860;28;20064;-80
2022/01/22 10:08:31;;;;;;;10.05;2.30;;;6.70;99.90;;;;;;5053204;28;20037;-80
2022/01/22 10:10:58;;;;;;;8.57;2.10;;;6.70;99.90;;;;;;5051771;28;20486;-81
2022/01/22 10:13:46;;;;;;;8.65;2.38;;;6.70;99.90;;;;;;5019170;28;20060;-82
2022/01/22 10:16:22;;;;;;;8.82;2.15;;;6.80;99.90;;;;;;5083641;28;20461;-80
2022/01/22 10:19:07;;;;;;;;;;;6.80;99.90;;;;;;5020371;28;20098;-80
2022/01/22 10:21:32;;;;;;;7.60;1.92;;;7.40;99.90;;;;;;5035191;28;19928;-81
2022/01/22 10:24:39;;;;;;;6.82;1.60;;;6.80;99.90;;;;;;5032398;28;20037;-81
2022/01/22 10:27:45;;;;;;;7.57;1.67;;;6.90;99.90;;;;;;5049855;28;20049;-80
2022/01/22 10:30:14;;;;;;;9.43;1.63;;;6.90;99.90;;;;;;5049584;28;20076;-79
2022/01/22 10:32:50;;;;;;;10.25;2.08;;;6.90;99.90;;;;;;5034691;28;20127;-80
2022/01/22 10:35:25;;;;;;;7.35;1.90;;;7.00;99.90;;;;;;5051354;28;20120;-79
2022/01/22 10:37:55;;;;;;;6.28;1.75;;;5.90;99.90;;;;;;5051786;28;20094;-81
2022/01/22 10:40:28;;;;;;;10.75;2.00;;;7.00;99.90;;;;;;5066726;28;20052;-79
2022/01/22 10:43:12;;;;;;;11.93;2.00;;;7.10;99.90;;;;;;5047325;28;20044;-80
2022/01/22 10:45:41;;;;;;;10.02;1.75;;;7.10;99.90;;;;;;5082142;28;20441;-83
2022/01/22 10:48:21;;;;;;;7.22;1.70;;;7.00;99.90;;;;;;5019615;28;20036;-82
2022/01/22 10:51:04;;;;;;;9.38;2.10;;;7.10;99.90;;;;;;5053341;28;20102;-84
2022/01/22 10:53:41;;;;;;;10.85;2.00;;;7.10;99.90;;;;;;5034476;28;20525;-83
2022/01/22 10:56:15;;;;;;;10.00;1.75;;;7.10;99.90;;;;;;5051610;28;20123;-83
2022/01/22 10:59:01;;;;;;;9.82;1.63;;;7.10;99.90;;;;;;5051643;28;20098;-84
2022/01/22 11:02:08;;;;;;;10.13;2.20;;;7.10;99.90;;;;;;5035314;28;20187;-86
2022/01/22 11:04:34;;;;;;;;;;;7.10;99.90;;;;;;5055647;28;20049;-82
2022/01/22 11:07:07;;;;;;;8.70;1.60;;;7.10;99.90;;;;;;5035471;28;19925;-82
2022/01/22 11:09:35;;;;;;;5.00;1.98;;;7.10;99.90;;;;;;5049047;28;20076;-83
2022/01/22 11:12:04;;;;;;;9.35;1.67;;;7.10;99.90;;;;;;5053169;28;20057;-82
2022/01/22 11:14:33;;;;;;;9.27;1.92;;;7.10;99.90;;;;;;5052667;28;20041;-81
2022/01/22 11:17:00;;;;;;;8.07;1.77;;;7.10;99.90;;;;;;5035061;28;20060;-84
2022/01/22 11:19:33;;;;;;;13.75;2.33;;;7.10;99.90;;;;;;5067307;28;20059;-81
2022/01/22 11:22:05;;;;;;;7.55;1.75;;;7.10;99.90;;;;;;5018771;28;20037;-82
2022/01/22 11:24:35;;;;;;;7.47;1.60;;;7.20;99.90;;;;;;5069400;28;20084;-81
2022/01/22 11:27:03;;;;;;;7.63;1.70;;;7.10;99.90;;;;;;5036646;28;20478;-83
2022/01/22 11:29:39;;;;;;;4.70;1.35;;;7.30;99.90;;;;;;5039490;28;20080;-83
2022/01/22 11:32:08;;;;;;;;;;;7.10;99.90;;;;;;5070479;28;20159;-83
2022/01/22 11:34:36;;;;;;;3.58;1.02;;;7.20;99.90;;;;;;5043106;28;20001;-83
2022/01/22 11:37:10;;;;;;;5.15;1.08;;;7.10;99.90;;;;;;5054341;28;20049;-83
2022/01/22 11:39:36;;;;;;;4.97;1.23;;;7.10;99.90;;;;;;5055767;28;20045;-84
2022/01/22 11:42:04;;;;;;;5.22;1.50;;;7.10;99.90;;;;;;5038203;28;20044;-85
2022/01/22 11:44:51;;;;;;;5.85;1.42;;;7.20;99.90;;;;;;5035217;28;20146;-82
2022/01/22 11:47:20;;;;;;;9.60;1.52;;;7.20;99.90;;;;;;5040459;28;20490;-83
2022/01/22 11:50:24;;;;;;;7.88;1.83;;;7.20;99.90;;;;;;5055974;28;20086;-85
2022/01/22 11:53:22;;;;;;;6.45;1.50;;;7.10;99.90;;;;;;5042349;28;20139;-85
2022/01/22 11:56:07;;;;;;;9.68;1.85;;;7.20;99.90;;;;;;5036520;28;20574;-81
2022/01/22 11:58:33;;;;;;;8.15;2.00;;;7.10;99.90;;;;;;5039734;28;20072;-79
2022/01/22 12:00:59;;;;;;;5.57;1.30;;;6.40;99.90;;;;;;5038114;28;20845;-79
2022/01/22 12:03:28;;;;;;;12.05;2.33;;;7.10;99.90;;;;;;5051889;28;20045;-80
2022/01/22 12:05:53;;;;;;;7.28;1.85;;;7.00;99.90;;;;;;5051755;28;20036;-83
2022/01/22 12:08:21;;;;;;;9.57;2.00;;;7.00;99.90;;;;;;5034483;28;20044;-80
2022/01/22 12:14:29;;;;;;;8.60;1.98;;;7.00;99.90;;;;;;5028714;28;20083;-80
2022/01/22 12:16:45;;;;;;;10.63;1.65;;;7.10;99.90;;;;;;5050578;28;20139;-80
2022/01/22 12:19:47;;;;;;;9.13;1.75;;;7.10;99.90;;;;;;5054492;28;20053;-79
2022/01/22 12:22:34;;;;;;;7.13;1.65;;;7.10;99.90;;;;;;5086653;28;20052;-80
2022/01/22 12:25:15;;;;;;;7.60;1.50;;;7.10;99.90;;;;;;5050596;28;20044;-79
2022/01/22 12:27:53;;;;;;;4.53;1.27;;;7.10;99.90;;;;;;5055971;28;20082;-83
2022/01/22 12:30:49;;;;;;;7.10;1.75;;;7.10;99.90;;;;;;5035207;28;20067;-83
2022/01/22 12:33:38;;;;;;;3.20;1.10;;;7.10;99.90;;;;;;5039279;28;20076;-81
2022/01/22 12:36:06;;;;;;;7.32;1.48;;;7.00;99.90;;;;;;5033732;28;20404;-82
2022/01/22 12:44:04;;;;;;;8.23;1.27;;;7.10;99.90;;;;;;5051811;28;20131;-82
2022/01/22 12:46:30;;;;;;;6.47;1.55;;;7.10;99.90;;;;;;5025481;28;20040;-81
2022/01/22 12:49:03;;;;;;;6.28;1.33;;;7.10;99.90;;;;;;5068483;28;20133;-85
2022/01/22 12:51:31;;;;;;;5.20;1.15;;;7.10;99.90;;;;;;5037353;28;20048;-85
2022/01/22 12:54:00;;;;;;;7.35;1.20;;;7.00;99.90;;;;;;5033306;28;20049;-85
2022/01/22 12:59:16;;;;;;;3.53;1.17;;;8.00;99.90;;;;;;5073413;28;20075;-85
2022/01/22 13:01:47;;;;;;;6.25;1.73;;;7.00;99.90;;;;;;5038322;28;20045;-86
2022/01/22 13:04:24;;;;;;;8.05;1.67;;;7.20;99.90;;;;;;5035912;28;20095;-85
2022/01/22 13:06:56;;;;;;;8.07;1.17;;;7.10;99.90;;;;;;5019971;28;20045;-86
2022/01/22 13:09:25;;;;;;;5.78;1.23;;;7.10;99.90;;;;;;5025141;28;20473;-86
2022/01/22 13:11:59;;;;;;;4.00;1.05;;;7.00;99.90;;;;;;5023295;28;20106;-85
2022/01/22 13:14:28;;;;;;;7.22;1.20;;;7.10;99.90;;;;;;5070711;28;20041;-84
2022/01/22 13:16:56;;;;;;;7.35;1.45;;;6.90;99.90;;;;;;5054680;28;20064;-85
2022/01/22 13:19:23;;;;;;;9.80;2.10;;;7.00;99.90;;;;;;5053267;28;20560;-84
2022/01/22 13:21:52;;;;;;;5.47;1.48;;;7.00;99.90;;;;;;5029702;28;20131;-84
2022/01/22 13:24:23;;;;;;;10.57;1.50;;;6.90;99.90;;;;;;5055753;28;20044;-85
2022/01/22 13:30:02;;;;;;;7.72;1.40;;;7.00;99.90;;;;;;5033745;28;20057;-87
2022/01/22 13:49:50;;;;;;;8.65;1.52;;;6.80;99.90;;;;;;5051369;28;20149;-83
2022/01/22 13:52:21;;;;;;;7.35;1.30;;;7.00;99.90;;;;;;5021855;28;20049;-87
2022/01/22 13:55:09;;;;;;;6.82;1.33;;;6.70;99.90;;;;;;5039003;28;20088;-87
2022/01/22 13:57:36;;;;;;;6.85;1.63;;;6.10;99.90;;;;;;5054389;28;20608;-86
2022/01/22 14:00:14;;;;;;;7.60;1.60;;;6.90;99.90;;;;;;5039035;28;20164;-85
2022/01/22 14:05:32;;;;;;;5.85;1.25;;;7.00;99.90;;;;;;5054222;28;20057;-85
2022/01/22 14:08:09;;;;;;;6.05;1.30;;;6.80;99.90;;;;;;5070117;28;20059;-86
2022/01/22 14:10:36;;;;;;;5.45;1.17;;;6.80;99.90;;;;;;5036830;28;20057;-84
2022/01/22 14:13:10;;;;;;;9.95;1.48;;;6.70;99.90;;;;;;5033110;28;20486;-82
2022/01/22 14:15:43;;;;;;;6.47;1.40;;;6.60;99.90;;;;;;5084925;28;20049;-84
2022/01/22 14:21:20;;;;;;;6.97;1.50;;;5.90;99.90;;;;;;5052371;28;20057;-83
2022/01/22 14:23:52;;;;;;;9.70;1.75;;;6.90;99.90;;;;;;5071154;28;20452;-84
2022/01/22 14:26:34;;;;;;;5.97;1.38;;;6.60;99.90;;;;;;5037140;28;20036;-84
2022/01/22 14:29:10;;;;;;;3.88;1.40;;;6.50;99.90;;;;;;5053743;28;20514;-84
2022/01/22 14:31:43;;;;;;;6.72;1.35;;;6.60;99.90;;;;;;5052524;28;20083;-84
2022/01/22 14:34:28;;;;;;;10.25;1.80;;;6.60;99.90;;;;;;5049615;28;20036;-83
2022/01/22 14:36:55;;;;;;;6.47;1.52;;;6.50;99.90;;;;;;5019127;28;20040;-85
2022/01/22 14:44:35;;;;;;;6.55;1.75;;;5.70;99.90;;;;;;5049341;28;20049;-83
2022/01/22 14:47:04;;;;;;;7.35;1.73;;;6.60;99.90;;;;;;5052673;28;20056;-83
2022/01/22 14:49:39;;;;;;;8.43;1.40;;;6.40;99.90;;;;;;5022687;28;20802;-83
2022/01/22 14:52:07;;;;;;;4.22;1.30;;;6.40;99.90;;;;;;5037412;28;20052;-83
2022/01/22 14:54:36;;;;;;;8.05;1.55;;;6.40;99.90;;;;;;5067795;28;20056;-84
2022/01/22 14:57:05;;;;;;;5.00;1.20;;;6.50;99.90;;;;;;5065870;28;20103;-84
2022/01/22 14:59:32;;;;;;;5.32;1.40;;;6.40;99.90;;;;;;5057322;28;20053;-83
2022/01/22 15:01:59;;;;;;;6.22;1.30;;;6.40;99.90;;;;;;5034586;28;20051;-84
2022/01/22 15:04:26;;;;;;;5.78;1.30;;;6.30;99.90;;;;;;5054309;28;20263;-84
2022/01/22 15:06:52;;;;;;;4.20;1.02;;;7.70;99.90;;;;;;5071075;28;20478;-83
2022/01/22 15:09:19;;;;;;;4.30;1.00;;;6.30;99.90;;;;;;5030992;28;20047;-87
2022/01/22 15:11:51;;;;;;;3.65;1.00;;;6.30;99.90;;;;;;5054200;28;20040;-87
2022/01/22 15:14:27;;;;;;;;;;;;;;;;;;;;;
2022/01/22 15:20:34;;;;;;;2.97;1.30;;;5.50;99.90;;;;;;5055478;28;20059;-87
2022/01/22 15:23:45;;;;;;;4.10;1.10;;;6.50;99.90;;;;;;5035325;28;20511;-88
2022/01/22 15:26:22;;;;;;;6.22;1.25;;;6.30;99.90;;;;;;5056566;28;20045;-87
2022/01/22 15:29:01;;;;;;;;;;;;;;;;;;;;;
2022/01/22 15:34:58;;;;;;;3.40;1.27;;;6.30;99.90;;;;;;5053901;28;20053;-87
2022/01/22 15:38:14;;;;;;;5.13;1.30;;;6.20;99.90;;;;;;5050573;28;20052;-87
2022/01/22 15:41:08;;;;;;;;;;;;;;;;;;;;;
2022/01/22 15:43:44;;;;;;;6.50;1.27;;;6.30;99.90;;;;;;5051583;28;20076;-86
2022/01/22 15:46:29;;;;;;;2.65;1.02;;;6.20;99.90;;;;;;5037929;28;20080;-87
2022/01/22 15:49:22;;;;;;;3.60;0.93;;;6.30;99.90;;;;;;4962862;28;20054;-87
2022/01/22 15:51:59;;;;;;;3.42;1.00;;;6.50;99.90;;;;;;5015211;28;20069;-85
2022/01/22 15:54:39;;;;;;;;;;;;;;;;;;;;;
2022/01/22 15:57:15;;;;;;;5.60;1.67;;;6.20;99.90;;;;;;5038200;28;20111;-86